Time;durP1;ratioP1;P1;durP2;ratioP2;P2;SDS_P1;SDS_P2;PMS_P1;PMS_P2;Temp;Humidity;BMP_temperature;BMP_pressure;BME280_temperature;BME280_humidity;BME280_pressure;Samples;Min_cycle;Max_cycle;Signal;HPM_P1;HPM_P2
2022/09/17 00:02:29;;;;;;;2.58;1.33;;;10.20;17.10;;;;;;7370314;19;20094;-65
2022/09/17 00:04:59;;;;;;;1.77;1.00;;;10.20;16.20;;;;;;7371760;19;20014;-65
2022/09/17 00:07:30;;;;;;;2.22;0.93;;;10.30;16.40;;;;;;7386520;19;20010;-65
2022/09/17 00:10:03;;;;;;;3.95;1.30;;;10.30;16.20;;;;;;7362656;19;20015;-65
2022/09/17 00:12:33;;;;;;;3.75;1.30;;;10.30;16.20;;;;;;7370867;19;20046;-64
2022/09/17 00:15:03;;;;;;;2.65;1.23;;;10.30;16.70;;;;;;7370169;19;20137;-64
2022/09/17 00:17:32;;;;;;;2.17;0.90;;;10.30;15.80;;;;;;7364526;19;20528;-65
2022/09/17 00:20:02;;;;;;;3.22;1.10;;;10.40;16.20;;;;;;7363367;19;20010;-64
2022/09/17 00:22:32;;;;;;;2.78;1.00;;;10.40;15.30;;;;;;7393341;19;20011;-67
2022/09/17 00:25:05;;;;;;;2.38;0.93;;;10.40;15.60;;;;;;7391767;19;20007;-65
2022/09/17 00:27:35;;;;;;;2.50;1.45;;;10.40;15.30;;;;;;7364415;19;20017;-64
2022/09/17 00:30:06;;;;;;;1.33;0.90;;;10.40;15.30;;;;;;7363480;19;20018;-64
2022/09/17 00:32:36;;;;;;;3.03;1.30;;;10.30;15.20;;;;;;7370218;19;20111;-64
2022/09/17 00:35:07;;;;;;;2.15;1.13;;;10.30;15.20;;;;;;7369336;19;20018;-64
2022/09/17 00:37:36;;;;;;;1.73;1.05;;;10.30;15.40;;;;;;7364519;19;20367;-64
2022/09/17 00:40:11;;;;;;;2.08;1.08;;;10.30;16.00;;;;;;7384298;19;20014;-65
2022/09/17 00:42:41;;;;;;;2.15;0.98;;;10.30;16.00;;;;;;7369641;19;20007;-64
2022/09/17 00:45:12;;;;;;;1.38;0.90;;;10.30;16.30;;;;;;7369419;19;20006;-64
2022/09/17 00:47:45;;;;;;;2.20;1.10;;;10.30;16.80;;;;;;7363847;19;20010;-64
2022/09/17 00:50:18;;;;;;;6.07;1.10;;;10.30;16.60;;;;;;7362160;19;20013;-64
2022/09/17 00:52:52;;;;;;;4.22;1.30;;;10.20;17.10;;;;;;7370343;19;20019;-64
2022/09/17 00:55:29;;;;;;;2.45;1.15;;;10.20;17.40;;;;;;7388479;19;20395;-65
2022/09/17 00:58:02;;;;;;;3.30;1.20;;;10.10;18.20;;;;;;7363954;19;20021;-65
2022/09/17 01:00:34;;;;;;;3.73;1.00;;;10.00;18.90;;;;;;7359066;19;20115;-64
2022/09/17 01:03:04;;;;;;;4.55;1.65;;;10.00;19.50;;;;;;7368663;19;20122;-65
2022/09/17 01:05:42;;;;;;;2.38;1.20;;;10.00;19.80;;;;;;7367745;19;20458;-65
2022/09/17 01:08:26;;;;;;;3.65;1.38;;;9.90;21.10;;;;;;7366799;19;20476;-65
2022/09/17 01:11:23;;;;;;;2.35;1.20;;;10.00;20.70;;;;;;7363318;19;20010;-65
2022/09/17 01:14:04;;;;;;;1.65;1.30;;;9.90;21.90;;;;;;7369331;19;20015;-65
2022/09/17 01:16:42;;;;;;;2.25;1.05;;;9.90;22.70;;;;;;7369134;19;20033;-66
2022/09/17 01:19:33;;;;;;;4.03;1.50;;;9.90;22.70;;;;;;7386484;19;20017;-65
2022/09/17 01:22:05;;;;;;;4.80;2.13;;;9.90;22.70;;;;;;7366174;19;20007;-65
2022/09/17 01:24:51;;;;;;;3.58;1.45;;;9.90;22.70;;;;;;7368074;19;20039;-65
2022/09/17 01:27:51;;;;;;;6.47;1.73;;;10.00;22.00;;;;;;7362831;19;20006;-65
2022/09/17 01:30:51;;;;;;;2.85;1.67;;;9.90;22.70;;;;;;7360238;19;20014;-65
2022/09/17 01:33:29;;;;;;;2.65;1.88;;;9.90;22.70;;;;;;7366718;19;20013;-65
2022/09/17 01:36:15;;;;;;;2.45;1.65;;;9.90;22.80;;;;;;7364935;19;20022;-65
2022/09/17 01:38:49;;;;;;;2.80;1.52;;;9.90;23.30;;;;;;7364701;19;20313;-65
2022/09/17 01:41:22;;;;;;;;;;;9.90;22.80;;;;;;7364140;19;20015;-65
2022/09/17 01:43:59;;;;;;;2.85;1.40;;;9.90;22.70;;;;;;7368566;19;20353;-65
2022/09/17 01:46:35;;;;;;;3.00;1.48;;;9.90;22.70;;;;;;7384098;19;20018;-65
2022/09/17 01:49:07;;;;;;;4.68;1.30;;;9.90;23.20;;;;;;7365100;19;20482;-65
2022/09/17 01:51:40;;;;;;;2.67;1.70;;;9.90;23.50;;;;;;7363184;19;20014;-65
2022/09/17 01:54:15;;;;;;;6.88;2.00;;;9.90;24.10;;;;;;7368311;19;20376;-65
2022/09/17 01:56:50;;;;;;;3.28;1.40;;;9.90;24.10;;;;;;7361143;19;20025;-65
2022/09/17 01:59:23;;;;;;;3.85;1.75;;;9.80;24.30;;;;;;7362859;19;20031;-65
2022/09/17 02:02:02;;;;;;;2.70;1.60;;;9.80;24.60;;;;;;7364505;19;20022;-65
2022/09/17 02:04:38;;;;;;;2.65;1.60;;;9.90;24.30;;;;;;7390218;19;20014;-65
2022/09/17 02:07:15;;;;;;;2.47;1.42;;;9.90;24.20;;;;;;7360367;19;20038;-65
2022/09/17 02:09:50;;;;;;;3.22;1.77;;;9.90;24.40;;;;;;7362350;19;20014;-64
2022/09/17 02:12:25;;;;;;;3.35;1.52;;;9.90;24.40;;;;;;7364760;19;20011;-65
2022/09/17 02:14:57;;;;;;;3.95;1.83;;;9.80;24.40;;;;;;7366837;19;20070;-65
2022/09/17 02:17:34;;;;;;;3.80;1.73;;;9.90;24.40;;;;;;7362142;19;20485;-64
2022/09/17 02:20:04;;;;;;;7.13;1.92;;;9.90;23.70;;;;;;7359697;19;20017;-64
2022/09/17 02:22:44;;;;;;;3.00;1.70;;;9.90;23.20;;;;;;7371132;19;20015;-64
2022/09/17 02:25:21;;;;;;;4.10;1.50;;;9.90;22.80;;;;;;7390037;19;20450;-64
2022/09/17 02:27:59;;;;;;;3.70;1.88;;;9.90;22.70;;;;;;7359915;19;20471;-65
2022/09/17 02:30:32;;;;;;;6.20;1.40;;;9.90;22.00;;;;;;7358863;19;20344;-64
2022/09/17 02:33:08;;;;;;;4.43;1.60;;;9.90;21.40;;;;;;7366970;19;20015;-64
2022/09/17 02:35:38;;;;;;;4.22;1.40;;;9.90;21.70;;;;;;7365772;19;20478;-65
2022/09/17 02:38:08;;;;;;;4.75;1.60;;;9.80;21.90;;;;;;7362706;19;20014;-65
2022/09/17 02:40:51;;;;;;;4.68;1.90;;;9.80;22.10;;;;;;7359430;19;20019;-65
2022/09/17 02:43:27;;;;;;;6.72;1.70;;;9.80;21.90;;;;;;7388434;19;20015;-65
2022/09/17 02:46:10;;;;;;;4.35;1.60;;;9.80;21.70;;;;;;7361978;19;20018;-65
2022/09/17 02:49:11;;;;;;;3.10;1.50;;;9.80;21.10;;;;;;7361205;19;20040;-65
2022/09/17 02:51:53;;;;;;;5.55;2.10;;;9.90;21.40;;;;;;7362432;19;20014;-66
2022/09/17 02:54:29;;;;;;;5.78;1.77;;;9.80;20.80;;;;;;7365165;19;20010;-66
2022/09/17 02:57:08;;;;;;;9.07;2.13;;;9.80;21.30;;;;;;7359750;19;20010;-65
2022/09/17 02:59:45;;;;;;;4.68;1.45;;;9.80;21.40;;;;;;7360882;19;20506;-65
2022/09/17 03:02:20;;;;;;;3.47;1.67;;;9.80;21.40;;;;;;7362731;19;20348;-65
2022/09/17 03:04:54;;;;;;;4.00;1.65;;;9.80;22.00;;;;;;7365902;19;20035;-65
2022/09/17 03:07:25;;;;;;;3.88;1.35;;;9.60;22.60;;;;;;7381835;19;20022;-65
2022/09/17 03:09:55;;;;;;;6.55;2.00;;;9.60;22.60;;;;;;7360344;19;20441;-65
2022/09/17 03:12:25;;;;;;;5.53;1.83;;;9.60;23.60;;;;;;7362495;19;20465;-64
2022/09/17 03:14:55;;;;;;;2.85;1.73;;;9.50;24.00;;;;;;7365526;19;20010;-65
2022/09/17 03:17:26;;;;;;;4.65;2.03;;;9.50;24.40;;;;;;7362175;19;20006;-64
2022/09/17 03:19:58;;;;;;;4.13;1.48;;;9.50;24.90;;;;;;7362899;19;20003;-64
2022/09/17 03:22:28;;;;;;;4.00;2.00;;;9.50;24.80;;;;;;7382656;19;20018;-64
2022/09/17 03:24:58;;;;;;;3.22;1.67;;;9.50;25.30;;;;;;7364546;19;20038;-64
2022/09/17 03:27:28;;;;;;;5.03;1.70;;;9.50;25.00;;;;;;7359341;19;20035;-64
2022/09/17 03:29:58;;;;;;;4.25;2.40;;;9.40;25.40;;;;;;7362345;19;20018;-64
2022/09/17 03:32:28;;;;;;;2.00;1.55;;;9.40;25.80;;;;;;7361737;19;20048;-64
2022/09/17 03:35:00;;;;;;;7.18;1.77;;;9.30;25.70;;;;;;7365749;19;20094;-64
2022/09/17 03:37:30;;;;;;;4.95;1.98;;;9.30;25.70;;;;;;7379555;19;20026;-64
2022/09/17 03:40:01;;;;;;;6.45;1.85;;;9.30;26.00;;;;;;7361802;19;20057;-64
2022/09/17 03:42:31;;;;;;;3.72;1.48;;;9.30;26.00;;;;;;7360088;19;20021;-64
2022/09/17 03:45:01;;;;;;;4.10;1.92;;;9.30;25.80;;;;;;7363280;19;20335;-64
2022/09/17 03:47:31;;;;;;;5.13;2.13;;;9.30;25.90;;;;;;7359467;19;20271;-64
2022/09/17 03:50:03;;;;;;;5.00;1.85;;;9.30;26.10;;;;;;7361512;19;20432;-64
2022/09/17 03:52:33;;;;;;;5.38;2.00;;;9.30;26.70;;;;;;7380833;19;20337;-65
2022/09/17 03:55:03;;;;;;;6.93;2.97;;;9.30;26.20;;;;;;7364019;19;20384;-65
2022/09/17 03:57:33;;;;;;;4.20;2.00;;;9.30;26.20;;;;;;7357747;19;20006;-65
2022/09/17 04:00:03;;;;;;;5.43;2.50;;;9.30;26.30;;;;;;7359365;19;20014;-64
2022/09/17 04:02:33;;;;;;;4.50;2.00;;;9.20;26.40;;;;;;7359722;19;20018;-64
2022/09/17 04:05:06;;;;;;;12.13;2.80;;;9.20;25.90;;;;;;7363947;19;20098;-64
2022/09/17 04:07:36;;;;;;;7.45;2.55;;;9.30;26.60;;;;;;7357740;19;20484;-67
2022/09/17 04:10:07;;;;;;;8.63;2.35;;;9.30;25.80;;;;;;7382320;19;20038;-65
2022/09/17 04:12:36;;;;;;;7.97;2.17;;;9.30;25.80;;;;;;7359764;19;20416;-64
2022/09/17 04:15:07;;;;;;;5.97;2.15;;;9.30;25.90;;;;;;7363601;19;20018;-65
2022/09/17 04:17:37;;;;;;;5.93;2.60;;;9.40;26.00;;;;;;7357968;19;20030;-64
2022/09/17 04:20:10;;;;;;;5.18;2.10;;;9.40;25.70;;;;;;7361699;19;20459;-64
2022/09/17 04:22:40;;;;;;;5.63;2.30;;;9.40;24.80;;;;;;7358818;19;20123;-65
2022/09/17 04:25:10;;;;;;;8.18;2.40;;;9.40;25.20;;;;;;7385549;19;20705;-64
2022/09/17 04:27:40;;;;;;;4.43;2.25;;;9.50;25.10;;;;;;7356734;19;20018;-64
2022/09/17 04:30:11;;;;;;;4.47;1.90;;;9.50;24.40;;;;;;7361097;19;20015;-64
2022/09/17 04:32:41;;;;;;;5.32;2.00;;;9.40;25.00;;;;;;7358889;19;20011;-64
2022/09/17 04:35:13;;;;;;;4.88;1.92;;;9.40;25.80;;;;;;7368294;19;20514;-65
2022/09/17 04:37:43;;;;;;;4.40;1.70;;;9.40;25.90;;;;;;7364020;19;20007;-65
2022/09/17 04:40:13;;;;;;;5.93;2.03;;;9.50;26.10;;;;;;7391173;19;20017;-65
2022/09/17 04:42:43;;;;;;;4.70;2.20;;;9.50;25.90;;;;;;7365324;19;20470;-65
2022/09/17 04:45:13;;;;;;;6.65;1.80;;;9.50;25.40;;;;;;7370505;19;20010;-65
2022/09/17 04:47:42;;;;;;;5.47;2.17;;;9.50;24.80;;;;;;7365525;19;20006;-65
2022/09/17 04:50:16;;;;;;;6.05;1.98;;;9.50;24.00;;;;;;7368322;19;20018;-65
2022/09/17 04:52:46;;;;;;;5.03;2.28;;;9.60;23.80;;;;;;7364590;19;20114;-65
2022/09/17 04:55:17;;;;;;;2.63;2.00;;;9.60;22.60;;;;;;7391062;19;20010;-65
2022/09/17 04:57:51;;;;;;;5.82;2.67;;;9.50;22.40;;;;;;7362002;19;20014;-65
2022/09/17 05:00:23;;;;;;;6.47;2.25;;;9.50;22.40;;;;;;7369159;19;20010;-65
2022/09/17 05:02:55;;;;;;;7.47;2.85;;;9.50;22.70;;;;;;7365767;19;20017;-64
2022/09/17 05:05:28;;;;;;;7.00;2.38;;;9.50;22.80;;;;;;7368589;19;20014;-65
2022/09/17 05:07:58;;;;;;;7.65;2.47;;;9.40;22.90;;;;;;7362821;19;20014;-64
2022/09/17 05:10:27;;;;;;;4.00;2.53;;;9.40;23.10;;;;;;7389078;19;20010;-64
2022/09/17 05:12:58;;;;;;;5.40;2.40;;;9.40;23.20;;;;;;7366416;19;20058;-63
2022/09/17 05:15:28;;;;;;;5.05;2.47;;;9.40;23.40;;;;;;7369314;19;20014;-66
2022/09/17 05:17:58;;;;;;;6.28;2.80;;;9.30;23.40;;;;;;7363785;19;20014;-65
2022/09/17 05:20:31;;;;;;;10.02;2.97;;;9.20;24.30;;;;;;7366365;19;20013;-64
2022/09/17 05:23:00;;;;;;;7.63;3.17;;;9.30;23.80;;;;;;7366431;19;20014;-63
2022/09/17 05:25:31;;;;;;;8.85;2.55;;;9.30;22.40;;;;;;7390716;19;20087;-64
2022/09/17 05:28:01;;;;;;;9.70;3.38;;;9.30;23.40;;;;;;7360955;19;20011;-64
2022/09/17 05:30:31;;;;;;;5.65;2.80;;;9.40;23.40;;;;;;7366113;19;20014;-65
2022/09/17 05:33:02;;;;;;;5.30;2.70;;;9.40;23.00;;;;;;7366056;19;20018;-64
2022/09/17 05:35:36;;;;;;;5.63;2.60;;;9.50;22.40;;;;;;7367518;19;20474;-65
2022/09/17 05:38:07;;;;;;;6.00;2.63;;;9.40;22.50;;;;;;7362909;19;20053;-65
2022/09/17 05:40:37;;;;;;;5.32;2.55;;;9.60;22.50;;;;;;7365415;19;20014;-65
2022/09/17 05:43:08;;;;;;;7.38;3.50;;;9.70;21.20;;;;;;7388845;19;20554;-65
2022/09/17 05:45:39;;;;;;;7.15;2.75;;;9.60;21.20;;;;;;7366291;19;20534;-65
2022/09/17 05:48:12;;;;;;;4.22;2.80;;;9.70;20.20;;;;;;7364623;19;20466;-65
2022/09/17 05:50:45;;;;;;;6.18;2.90;;;9.80;20.10;;;;;;7362616;19;20014;-65
2022/09/17 05:53:15;;;;;;;4.50;2.70;;;9.70;19.90;;;;;;7365780;19;20034;-65
2022/09/17 05:55:45;;;;;;;5.35;2.65;;;9.80;19.80;;;;;;7365583;19;20025;-65
2022/09/17 05:58:17;;;;;;;5.50;2.70;;;9.80;19.10;;;;;;7384703;19;20575;-65
2022/09/17 06:00:48;;;;;;;8.18;2.70;;;9.80;18.30;;;;;;7362443;19;20592;-65
2022/09/17 06:03:21;;;;;;;15.52;3.35;;;9.70;20.90;;;;;;7368027;19;20331;-65
2022/09/17 06:06:01;;;;;;;3.92;2.85;;;9.70;20.00;;;;;;7364211;19;20034;-65
2022/09/17 06:08:31;;;;;;;5.63;3.00;;;9.70;19.60;;;;;;7365187;19;20019;-65
2022/09/17 06:11:05;;;;;;;6.38;3.15;;;9.60;19.40;;;;;;7363452;19;20022;-65
2022/09/17 06:13:36;;;;;;;7.28;2.75;;;9.60;19.30;;;;;;7377868;19;20344;-65
2022/09/17 06:16:06;;;;;;;4.53;2.80;;;9.50;18.90;;;;;;7384893;19;20021;-65
2022/09/17 06:18:36;;;;;;;6.70;2.70;;;9.70;19.50;;;;;;7361920;19;20499;-64
2022/09/17 06:21:08;;;;;;;4.95;2.85;;;9.60;18.70;;;;;;7360620;19;20050;-64
2022/09/17 06:23:38;;;;;;;4.47;2.80;;;9.70;19.00;;;;;;7366846;19;20015;-64
2022/09/17 06:26:08;;;;;;;5.63;2.53;;;9.80;19.10;;;;;;7363571;19;20014;-64
2022/09/17 06:28:39;;;;;;;6.65;2.72;;;9.60;18.50;;;;;;7362998;19;20018;-65
2022/09/17 06:31:11;;;;;;;7.43;2.67;;;9.80;18.90;;;;;;7383494;19;20094;-65
2022/09/17 06:33:42;;;;;;;6.32;2.70;;;9.80;17.00;;;;;;7366463;19;20007;-66
2022/09/17 06:36:14;;;;;;;7.75;3.53;;;9.90;17.30;;;;;;7361370;19;20459;-64
2022/09/17 06:38:44;;;;;;;10.15;2.88;;;10.00;15.90;;;;;;7363416;19;20018;-66
2022/09/17 06:41:15;;;;;;;5.35;2.63;;;10.00;15.00;;;;;;7360538;19;20014;-65
2022/09/17 06:43:45;;;;;;;5.32;2.60;;;10.00;15.40;;;;;;7367334;19;20074;-65
2022/09/17 06:46:15;;;;;;;5.78;2.63;;;9.90;15.70;;;;;;7384502;19;20567;-64
2022/09/17 06:48:45;;;;;;;6.05;2.42;;;10.10;14.20;;;;;;7360694;19;20010;-65
2022/09/17 06:51:17;;;;;;;7.03;2.63;;;9.90;15.70;;;;;;7360186;19;20011;-65
2022/09/17 06:53:47;;;;;;;5.55;2.60;;;10.00;14.90;;;;;;7366037;19;20161;-65
2022/09/17 06:56:17;;;;;;;7.90;2.88;;;10.10;15.10;;;;;;7360513;19;20042;-65
2022/09/17 06:58:47;;;;;;;5.55;2.30;;;9.90;15.70;;;;;;7361395;19;20017;-65
2022/09/17 07:01:17;;;;;;;5.07;2.28;;;9.90;15.70;;;;;;7382359;19;20018;-66
2022/09/17 07:03:48;;;;;;;4.00;2.80;;;10.00;17.00;;;;;;7365918;19;20014;-65
2022/09/17 07:06:20;;;;;;;4.60;2.83;;;9.90;16.90;;;;;;7361322;19;20018;-64
2022/09/17 07:08:50;;;;;;;5.07;3.00;;;10.10;19.20;;;;;;7363187;19;20482;-64
2022/09/17 07:11:20;;;;;;;5.40;3.20;;;10.00;19.30;;;;;;7359670;19;20439;-64
2022/09/17 07:13:50;;;;;;;6.50;3.20;;;9.80;22.60;;;;;;7365772;19;20014;-64
2022/09/17 07:16:19;;;;;;;7.90;3.47;;;9.60;25.40;;;;;;7383225;19;20604;-64
2022/09/17 07:18:49;;;;;;;4.45;3.03;;;9.50;25.90;;;;;;7360328;19;20048;-65
2022/09/17 07:21:22;;;;;;;6.93;3.47;;;9.40;27.20;;;;;;7359576;19;20494;-65
2022/09/17 07:23:53;;;;;;;8.02;3.35;;;9.50;30.60;;;;;;7364991;19;20010;-64
2022/09/17 07:26:22;;;;;;;5.63;3.55;;;9.50;31.20;;;;;;7358846;19;20403;-65
2022/09/17 07:28:52;;;;;;;6.07;3.28;;;9.40;29.30;;;;;;7363030;19;20493;-65
2022/09/17 07:31:22;;;;;;;7.43;4.00;;;9.40;30.70;;;;;;7382348;19;20466;-66
2022/09/17 07:33:52;;;;;;;7.82;3.80;;;9.50;32.70;;;;;;7364088;19;20010;-64
2022/09/17 07:36:24;;;;;;;5.93;3.88;;;9.50;34.40;;;;;;7359626;19;20010;-64
2022/09/17 07:38:54;;;;;;;6.22;4.00;;;9.30;33.90;;;;;;7361716;19;20011;-64
2022/09/17 07:41:25;;;;;;;6.28;4.13;;;9.40;36.20;;;;;;7359094;19;20577;-65
2022/09/17 07:43:55;;;;;;;6.80;4.60;;;9.50;38.30;;;;;;7365240;19;20019;-65
2022/09/17 07:46:25;;;;;;;7.97;4.03;;;9.50;38.10;;;;;;7381550;19;20466;-64
2022/09/17 07:48:55;;;;;;;6.82;4.10;;;9.30;35.30;;;;;;7359680;19;20056;-65
2022/09/17 07:51:29;;;;;;;9.20;4.82;;;9.40;38.20;;;;;;7359030;19;20038;-64
2022/09/17 07:54:01;;;;;;;7.47;4.20;;;9.40;38.30;;;;;;7362946;19;20018;-65
2022/09/17 07:56:31;;;;;;;7.82;4.28;;;9.50;36.70;;;;;;7358652;19;20492;-65
2022/09/17 07:59:01;;;;;;;7.38;4.47;;;9.60;33.50;;;;;;7359496;19;20415;-65
2022/09/17 08:01:30;;;;;;;7.60;4.75;;;9.90;35.70;;;;;;7380337;19;20034;-65
2022/09/17 08:04:00;;;;;;;8.70;3.92;;;10.10;35.00;;;;;;7363448;19;20022;-65
2022/09/17 08:06:33;;;;;;;8.00;4.15;;;9.90;29.60;;;;;;7358741;19;20010;-65
2022/09/17 08:09:02;;;;;;;7.95;3.80;;;10.00;32.70;;;;;;7364403;19;20019;-65
2022/09/17 08:11:33;;;;;;;8.77;4.28;;;10.00;28.90;;;;;;7365044;19;20010;-65
2022/09/17 08:14:22;;;;;;;7.15;3.60;;;10.20;30.60;;;;;;7371467;19;20018;-65
2022/09/17 08:16:58;;;;;;;10.60;3.92;;;10.10;29.20;;;;;;7366150;19;20482;-64
2022/09/17 08:19:28;;;;;;;9.80;4.20;;;10.30;27.30;;;;;;7386934;19;20019;-64
2022/09/17 08:22:01;;;;;;;6.10;3.75;;;10.10;26.80;;;;;;7366005;19;20609;-65
2022/09/17 08:24:31;;;;;;;10.95;3.83;;;10.40;29.10;;;;;;7370466;19;20037;-65
2022/09/17 08:27:00;;;;;;;8.93;3.38;;;10.40;26.00;;;;;;7365043;19;20017;-64
2022/09/17 08:29:30;;;;;;;7.88;3.88;;;10.30;22.80;;;;;;7367166;19;20018;-65
2022/09/17 08:32:04;;;;;;;6.70;3.90;;;10.50;25.20;;;;;;7365820;19;20040;-65
2022/09/17 08:34:35;;;;;;;6.35;3.90;;;10.70;23.00;;;;;;7392919;19;20466;-66
2022/09/17 08:37:07;;;;;;;6.90;3.90;;;10.50;22.50;;;;;;7365197;19;20010;-66
2022/09/17 08:39:37;;;;;;;7.72;3.55;;;10.90;23.10;;;;;;7364858;19;20471;-66
2022/09/17 08:42:14;;;;;;;7.65;3.45;;;11.00;19.20;;;;;;7364694;19;20018;-65
2022/09/17 08:44:46;;;;;;;7.22;3.13;;;11.00;17.00;;;;;;7370551;19;20026;-65
2022/09/17 08:47:20;;;;;;;5.95;3.28;;;11.20;18.40;;;;;;7364035;19;20014;-66
2022/09/17 08:49:53;;;;;;;7.60;3.17;;;11.80;17.70;;;;;;7366985;19;20032;-65
2022/09/17 08:52:54;;;;;;;8.32;3.03;;;11.80;12.90;;;;;;7386671;19;20010;-65
2022/09/17 08:55:33;;;;;;;7.80;3.22;;;11.50;8.80;;;;;;7369120;19;20010;-65
2022/09/17 08:58:41;;;;;;;9.13;2.65;;;11.40;11.60;;;;;;7361520;19;20010;-65
2022/09/17 09:01:22;;;;;;;6.35;3.20;;;11.20;13.20;;;;;;7362153;19;20021;-66
2022/09/17 09:04:14;;;;;;;9.32;3.35;;;11.30;14.50;;;;;;7369018;19;20078;-65
2022/09/17 09:06:49;;;;;;;6.68;2.78;;;11.20;12.30;;;;;;7363267;19;20058;-65
2022/09/17 09:09:24;;;;;;;7.32;2.53;;;11.30;13.90;;;;;;7365753;19;20396;-65
2022/09/17 09:12:07;;;;;;;7.45;3.28;;;11.10;12.50;;;;;;7364614;19;20390;-64
2022/09/17 09:14:50;;;;;;;9.02;3.08;;;11.20;14.00;;;;;;7369355;19;20124;-65
2022/09/17 09:17:23;;;;;;;6.10;2.70;;;11.20;11.60;;;;;;7363053;19;20066;-65
2022/09/17 09:19:53;;;;;;;9.13;3.38;;;11.20;12.20;;;;;;7364729;19;20708;-65
2022/09/17 09:22:48;;;;;;;6.20;2.80;;;11.30;14.00;;;;;;7385881;19;20010;-65
2022/09/17 09:25:26;;;;;;;15.13;3.38;;;11.60;12.40;;;;;;7367701;19;20018;-65
2022/09/17 09:28:08;;;;;;;8.52;2.72;;;11.40;9.50;;;;;;7361641;19;20019;-66
2022/09/17 09:30:49;;;;;;;6.97;3.13;;;11.40;12.40;;;;;;7366336;19;20010;-65
2022/09/17 09:33:22;;;;;;;8.27;2.83;;;11.80;9.90;;;;;;7366298;19;20010;-64
2022/09/17 09:35:52;;;;;;;6.50;2.70;;;11.70;7.80;;;;;;7364701;19;20474;-64
2022/09/17 09:38:31;;;;;;;8.93;2.47;;;11.40;7.50;;;;;;7363893;19;20011;-66
2022/09/17 09:41:10;;;;;;;6.07;2.38;;;11.50;7.90;;;;;;7361797;19;20038;-66
2022/09/17 09:43:45;;;;;;;9.27;2.78;;;11.50;9.40;;;;;;7368954;19;20014;-65
2022/09/17 09:47:05;;;;;;;7.13;3.08;;;11.80;6.30;;;;;;7383915;19;20052;-65
2022/09/17 09:49:49;;;;;;;5.28;2.40;;;11.70;7.50;;;;;;7262224;19;2004363;-64
2022/09/17 09:52:32;;;;;;;7.65;3.25;;;11.90;6.40;;;;;;7386003;19;20014;-65
2022/09/17 09:55:16;;;;;;;9.27;4.05;;;12.10;3.30;;;;;;7366557;19;20022;-65
2022/09/17 09:57:51;;;;;;;9.50;3.10;;;12.50;4.30;;;;;;7361426;19;20014;-65
2022/09/17 10:00:30;;;;;;;7.97;2.50;;;12.60;1.00;;;;;;7364370;19;20018;-66
2022/09/17 10:03:06;;;;;;;8.85;3.58;;;12.60;1.00;;;;;;7361329;19;20013;-65
2022/09/17 10:05:36;;;;;;;8.30;2.85;;;12.10;1.00;;;;;;7366910;19;20019;-64
2022/09/17 10:08:14;;;;;;;10.45;2.90;;;12.00;1.00;;;;;;7363783;19;20018;-65
2022/09/17 10:11:00;;;;;;;5.70;2.95;;;12.40;1.00;;;;;;7365403;19;20062;-66
2022/09/17 10:13:34;;;;;;;5.90;2.63;;;12.20;1.00;;;;;;7386963;19;20017;-66
2022/09/17 10:16:17;;;;;;;;;;;12.20;1.00;;;;;;7364134;19;20006;-66
2022/09/17 10:18:48;;;;;;;6.40;2.38;;;12.20;1.00;;;;;;7364541;19;19925;-65
2022/09/17 10:21:23;;;;;;;8.93;2.60;;;12.20;1.00;;;;;;7360131;19;20019;-65
2022/09/17 10:23:53;;;;;;;5.10;2.30;;;12.50;1.00;;;;;;7365075;19;20015;-65
2022/09/17 10:26:25;;;;;;;4.72;2.30;;;12.80;1.00;;;;;;7362562;19;20014;-66
2022/09/17 10:29:01;;;;;;;4.28;2.17;;;13.10;1.00;;;;;;7364190;19;20024;-65
2022/09/17 10:31:48;;;;;;;5.22;2.13;;;13.30;1.00;;;;;;7379056;19;20087;-66
2022/09/17 10:34:23;;;;;;;5.68;1.95;;;13.30;1.00;;;;;;7362397;19;20039;-66
2022/09/17 10:36:54;;;;;;;6.85;2.28;;;13.20;1.00;;;;;;7361190;19;20014;-64
2022/09/17 10:39:35;;;;;;;4.03;2.05;;;13.40;1.00;;;;;;7362380;19;20466;-64
2022/09/17 10:42:07;;;;;;;3.30;1.92;;;13.60;1.00;;;;;;7360146;19;20466;-66
2022/09/17 10:44:51;;;;;;;5.22;2.00;;;13.40;1.00;;;;;;7366041;19;20010;-66
2022/09/17 10:47:27;;;;;;;4.70;1.67;;;13.60;1.00;;;;;;7361137;19;20641;-65
2022/09/17 10:50:01;;;;;;;5.95;1.80;;;13.60;1.00;;;;;;7364345;19;20191;-64
2022/09/17 10:52:34;;;;;;;6.40;1.90;;;13.70;1.00;;;;;;7384346;19;20402;-65
2022/09/17 10:55:20;;;;;;;5.00;1.70;;;13.60;1.00;;;;;;7364906;19;20259;-64
2022/09/17 10:58:04;;;;;;;6.47;1.77;;;13.50;1.00;;;;;;7359239;19;20017;-65
2022/09/17 11:00:49;;;;;;;8.60;2.00;;;13.90;1.00;;;;;;7363432;19;20038;-65
2022/09/17 11:04:06;;;;;;;4.60;1.83;;;13.80;1.00;;;;;;7361593;19;20010;-65
2022/09/17 11:06:51;;;;;;;4.22;1.50;;;14.10;1.00;;;;;;7359879;19;20022;-65
2022/09/17 11:09:31;;;;;;;6.35;1.77;;;13.70;1.00;;;;;;7361603;19;20013;-64
2022/09/17 11:12:17;;;;;;;3.78;1.60;;;13.60;1.00;;;;;;7359495;19;20002;-65
2022/09/17 11:14:55;;;;;;;6.15;2.00;;;13.30;1.00;;;;;;7364968;19;20379;-65
2022/09/17 11:17:54;;;;;;;6.75;1.90;;;14.40;1.00;;;;;;7360142;19;20015;-65
2022/09/17 11:20:34;;;;;;;4.53;1.80;;;13.90;1.00;;;;;;7362270;19;20003;-65
2022/09/17 11:23:18;;;;;;;8.13;3.55;;;14.10;1.00;;;;;;7360542;19;20454;-65
2022/09/17 11:25:53;;;;;;;;;;;13.60;1.00;;;;;;7363320;19;20010;-65
2022/09/17 11:28:48;;;;;;;3.97;1.30;;;13.80;1.00;;;;;;7382545;19;19914;-66
2022/09/17 11:31:29;;;;;;;5.25;1.88;;;13.60;1.00;;;;;;7359898;19;20007;-65
2022/09/17 11:34:17;;;;;;;4.25;1.40;;;13.50;1.00;;;;;;7364701;19;20022;-65
2022/09/17 11:36:52;;;;;;;2.60;1.50;;;13.50;1.00;;;;;;7360760;19;20350;-65
2022/09/17 11:39:27;;;;;;;3.97;1.50;;;13.70;1.00;;;;;;7360055;19;20013;-65
2022/09/17 11:42:00;;;;;;;3.97;1.55;;;14.10;1.00;;;;;;7359400;19;20014;-65
2022/09/17 11:44:34;;;;;;;5.43;2.08;;;14.00;1.00;;;;;;7373976;19;20035;-65
2022/09/17 11:47:10;;;;;;;3.90;1.70;;;13.90;1.00;;;;;;7373861;19;20014;-63
2022/09/17 11:49:47;;;;;;;7.25;1.88;;;13.30;1.00;;;;;;7376717;19;20018;-65
2022/09/17 11:52:22;;;;;;;5.63;2.20;;;13.40;1.00;;;;;;7395109;19;20484;-65
2022/09/17 11:54:57;;;;;;;4.78;1.92;;;13.30;1.00;;;;;;7378046;19;20006;-65
2022/09/17 11:57:31;;;;;;;5.18;1.80;;;12.90;1.00;;;;;;7372363;19;20018;-65
2022/09/17 12:00:07;;;;;;;4.63;2.13;;;12.60;1.00;;;;;;7377046;19;20442;-65
2022/09/17 12:02:49;;;;;;;4.57;2.20;;;12.30;5.60;;;;;;7373589;19;20014;-65
2022/09/17 12:05:24;;;;;;;5.40;1.67;;;12.60;8.40;;;;;;7377212;19;20006;-65
2022/09/17 12:07:58;;;;;;;4.72;2.00;;;12.30;4.60;;;;;;7372111;19;20025;-65
2022/09/17 12:10:41;;;;;;;6.20;1.92;;;12.60;5.00;;;;;;7398131;19;20014;-65
2022/09/17 12:13:28;;;;;;;2.97;1.45;;;12.90;5.60;;;;;;7373825;19;20010;-66
2022/09/17 12:16:13;;;;;;;3.83;1.45;;;12.90;1.00;;;;;;7371811;19;20006;-65
2022/09/17 12:18:59;;;;;;;4.10;1.65;;;13.10;1.00;;;;;;7374066;19;20018;-65
2022/09/17 12:21:38;;;;;;;4.22;1.83;;;12.60;1.00;;;;;;7371134;19;20006;-65
2022/09/17 12:24:16;;;;;;;3.53;1.30;;;12.30;6.00;;;;;;7377943;19;20007;-65
2022/09/17 12:27:05;;;;;;;3.22;2.05;;;11.90;4.50;;;;;;7371231;19;20014;-65
2022/09/17 12:30:04;;;;;;;6.00;1.98;;;12.60;6.10;;;;;;7374094;19;20109;-65
2022/09/17 12:32:58;;;;;;;5.60;1.90;;;12.90;7.30;;;;;;7373406;19;20018;-64
2022/09/17 12:35:57;;;;;;;6.70;1.95;;;13.10;3.40;;;;;;7376824;19;20018;-65
2022/09/17 12:39:08;;;;;;;4.28;1.65;;;13.30;2.50;;;;;;7374897;19;20038;-65
2022/09/17 12:41:47;;;;;;;7.07;2.00;;;13.10;1.00;;;;;;7371533;19;20022;-64
2022/09/17 12:44:35;;;;;;;1.83;1.30;;;13.40;4.10;;;;;;7377227;19;20014;-65
2022/09/17 12:47:23;;;;;;;4.60;1.50;;;13.10;1.00;;;;;;7370470;19;20497;-66
2022/09/17 12:50:08;;;;;;;1.92;0.70;;;13.30;1.00;;;;;;7375384;19;20014;-65
2022/09/17 12:52:56;;;;;;;1.65;0.90;;;13.00;1.00;;;;;;7371771;19;20011;-65
2022/09/17 12:55:49;;;;;;;5.88;0.93;;;13.20;1.00;;;;;;7394644;19;20018;-65
2022/09/17 12:58:33;;;;;;;2.25;1.27;;;13.40;1.00;;;;;;7367007;19;20026;-65
2022/09/17 13:01:08;;;;;;;2.70;1.42;;;13.40;1.00;;;;;;7367187;19;20014;-65
2022/09/17 13:03:43;;;;;;;5.47;1.50;;;13.80;1.00;;;;;;7365364;19;20082;-65
2022/09/17 13:06:38;;;;;;;3.28;1.10;;;13.50;1.00;;;;;;7364136;19;20011;-65
2022/09/17 13:09:28;;;;;;;;;;;13.30;1.00;;;;;;7365830;19;20015;-64
2022/09/17 13:12:10;;;;;;;2.45;0.98;;;13.10;1.00;;;;;;7362791;19;19942;-65
2022/09/17 13:15:05;;;;;;;1.80;0.90;;;13.20;1.00;;;;;;7368708;19;20478;-65
2022/09/17 13:17:43;;;;;;;1.38;0.82;;;13.30;1.00;;;;;;7363165;19;20738;-64
2022/09/17 13:20:35;;;;;;;1.42;0.85;;;13.40;1.00;;;;;;7368114;19;20006;-64
2022/09/17 13:23:06;;;;;;;1.30;0.95;;;13.50;1.00;;;;;;7359719;19;20038;-66
2022/09/17 13:25:50;;;;;;;1.88;0.60;;;13.60;1.00;;;;;;7376172;19;20109;-66
2022/09/17 13:28:22;;;;;;;1.80;1.08;;;13.40;1.00;;;;;;7386992;19;20034;-66
2022/09/17 13:31:00;;;;;;;2.90;1.00;;;12.90;1.00;;;;;;7366697;19;20014;-65
2022/09/17 13:33:55;;;;;;;3.22;1.13;;;13.20;1.00;;;;;;7361751;19;20086;-65
2022/09/17 13:36:41;;;;;;;2.35;1.10;;;13.00;1.00;;;;;;7362422;19;20006;-65
2022/09/17 13:39:13;;;;;;;2.67;1.55;;;13.10;1.00;;;;;;7366051;19;20062;-65
2022/09/17 13:41:43;;;;;;;4.25;1.63;;;13.10;1.00;;;;;;7362168;19;20006;-66